Time;durP1;ratioP1;P1;durP2;ratioP2;P2;SDS_P1;SDS_P2;PMS_P1;PMS_P2;Temp;Humidity;BMP_temperature;BMP_pressure;BME280_temperature;BME280_humidity;BME280_pressure;Samples;Min_cycle;Max_cycle;Signal;HPM_P1;HPM_P2
2023/06/01 00:01:04;;;;;;;12.75;5.78;;;;;;;;;;5033032;28;20045;-75
2023/06/01 00:03:30;;;;;;;13.10;6.30;;;;;;;;;;5032434;28;20045;-75
2023/06/01 00:05:56;;;;;;;11.88;5.60;;;;;;;;;;5032622;28;20045;-75
2023/06/01 00:08:22;;;;;;;14.13;5.72;;;;;;;;;;5026414;28;20056;-75
2023/06/01 00:10:49;;;;;;;11.00;5.53;;;;;;;;;;5017635;28;20061;-75
2023/06/01 00:13:15;;;;;;;10.45;6.05;;;;;;;;;;5023626;28;20049;-75
2023/06/01 00:15:43;;;;;;;14.15;6.10;;;;;;;;;;5036799;28;20056;-75
2023/06/01 00:18:12;;;;;;;13.60;6.82;;;;;;;;;;5036833;28;20046;-75
2023/06/01 00:20:39;;;;;;;16.33;6.43;;;;;;;;;;5036980;28;20053;-75
2023/06/01 00:23:06;;;;;;;13.65;6.50;;;;;;;;;;5041071;28;20049;-75
2023/06/01 00:25:32;;;;;;;11.02;6.32;;;;;;;;;;5050771;28;20142;-75
2023/06/01 00:27:58;;;;;;;16.45;7.18;;;;;;;;;;5043427;28;20041;-75
2023/06/01 00:30:24;;;;;;;12.25;6.88;;;;;;;;;;5036464;28;20045;-75
2023/06/01 00:32:50;;;;;;;16.90;7.13;;;;;;;;;;5039631;28;20041;-75
2023/06/01 00:35:16;;;;;;;11.23;6.53;;;;;;;;;;5036156;28;20046;-75
2023/06/01 00:37:42;;;;;;;11.40;6.78;;;;;;;;;;5015049;28;20053;-75
2023/06/01 00:40:08;;;;;;;14.80;7.03;;;;;;;;;;5016647;28;20046;-75
2023/06/01 00:42:34;;;;;;;14.18;7.20;;;;;;;;;;5035714;28;20056;-75
2023/06/01 00:45:00;;;;;;;16.70;7.13;;;;;;;;;;5053548;28;20506;-75
2023/06/01 00:47:26;;;;;;;18.08;7.47;;;;;;;;;;5056097;28;20045;-75
2023/06/01 00:49:52;;;;;;;15.10;6.78;;;;;;;;;;5031609;28;20071;-75
2023/06/01 00:52:18;;;;;;;12.85;6.97;;;;;;;;;;5043148;28;20087;-75
2023/06/01 00:54:45;;;;;;;12.23;6.57;;;;;;;;;;5053673;28;20044;-75
2023/06/01 00:57:11;;;;;;;14.32;6.85;;;;;;;;;;5036599;28;20638;-75
2023/06/01 00:59:37;;;;;;;11.85;6.53;;;;;;;;;;5035491;28;20510;-75
2023/06/01 01:02:04;;;;;;;14.02;7.72;;;;;;;;;;5040053;28;20069;-75
2023/06/01 01:04:30;;;;;;;14.40;7.22;;;;;;;;;;5055738;28;20048;-75
2023/06/01 01:07:09;;;;;;;12.32;6.70;;;;;;;;;;5045058;28;20052;-75
2023/06/01 01:09:40;;;;;;;15.90;7.10;;;;;;;;;;5025294;28;20057;-75
2023/06/01 01:12:18;;;;;;;16.02;7.15;;;;;;;;;;5035148;28;20045;-75
2023/06/01 01:14:51;;;;;;;10.73;6.63;;;;;;;;;;5055409;28;20107;-75
2023/06/01 01:17:24;;;;;;;15.18;7.07;;;;;;;;;;5032583;28;20442;-75
2023/06/01 01:19:53;;;;;;;16.67;6.05;;;;;;;;;;5055027;28;20051;-75
2023/06/01 01:22:20;;;;;;;11.85;5.20;;;;;;;;;;5041015;28;20124;-75
2023/06/01 01:24:52;;;;;;;10.45;5.60;;;;;;;;;;5032649;28;20053;-75
2023/06/01 01:27:18;;;;;;;13.35;6.72;;;;;;;;;;5039391;28;20037;-75
2023/06/01 01:29:44;;;;;;;11.27;6.80;;;;;;;;;;5055419;28;20045;-75
2023/06/01 01:32:12;;;;;;;12.13;7.15;;;;;;;;;;5053796;28;20037;-75
2023/06/01 01:34:38;;;;;;;16.15;7.18;;;;;;;;;;5054871;28;20041;-75
2023/06/01 01:37:04;;;;;;;12.77;7.43;;;;;;;;;;5055032;28;20458;-75
2023/06/01 01:39:30;;;;;;;8.45;5.80;;;;;;;;;;5053553;28;20120;-75
2023/06/01 01:41:56;;;;;;;11.45;5.68;;;;;;;;;;5035650;28;20045;-75
2023/06/01 01:44:22;;;;;;;9.85;6.20;;;;;;;;;;5054884;28;20074;-75
2023/06/01 01:47:01;;;;;;;14.25;6.70;;;;;;;;;;5053772;28;20054;-75
2023/06/01 01:49:34;;;;;;;12.85;6.43;;;;;;;;;;5039607;28;20514;-75
2023/06/01 01:52:10;;;;;;;12.52;6.05;;;;;;;;;;5033969;28;20043;-75
2023/06/01 01:54:37;;;;;;;10.52;5.68;;;;;;;;;;5034809;28;20068;-75
2023/06/01 01:57:04;;;;;;;9.02;5.18;;;;;;;;;;5034326;28;20099;-75
2023/06/01 01:59:31;;;;;;;10.75;5.78;;;;;;;;;;5021370;28;20085;-75
2023/06/01 02:01:57;;;;;;;12.68;6.90;;;;;;;;;;5019108;28;20078;-75
2023/06/01 02:04:23;;;;;;;11.07;6.18;;;;;;;;;;5054839;28;20098;-75
2023/06/01 02:06:49;;;;;;;10.45;5.93;;;;;;;;;;5054602;28;20102;-75
2023/06/01 02:09:15;;;;;;;12.45;5.97;;;;;;;;;;5054262;28;20044;-75
2023/06/01 02:11:41;;;;;;;10.77;5.40;;;;;;;;;;5039046;28;20056;-75
2023/06/01 02:14:07;;;;;;;9.05;4.05;;;;;;;;;;5049761;28;20045;-75
2023/06/01 02:16:33;;;;;;;7.53;4.40;;;;;;;;;;5034827;28;20052;-75
2023/06/01 02:18:59;;;;;;;10.00;4.03;;;;;;;;;;5034427;28;20179;-75
2023/06/01 02:21:26;;;;;;;7.50;4.35;;;;;;;;;;5033287;28;20051;-75
2023/06/01 02:23:52;;;;;;;10.40;5.03;;;;;;;;;;5051549;28;20041;-75
2023/06/01 02:26:18;;;;;;;9.93;4.65;;;;;;;;;;5051273;28;20102;-75
2023/06/01 02:28:44;;;;;;;9.35;4.43;;;;;;;;;;5053752;28;20205;-75
2023/06/01 02:31:10;;;;;;;7.50;4.40;;;;;;;;;;5043342;28;20051;-75
2023/06/01 02:33:36;;;;;;;7.28;4.13;;;;;;;;;;5047906;28;20049;-75
2023/06/01 02:36:02;;;;;;;9.38;4.20;;;;;;;;;;5039260;28;20483;-75
2023/06/01 02:38:29;;;;;;;9.90;4.65;;;;;;;;;;5032869;28;20049;-75
2023/06/01 02:40:55;;;;;;;6.97;3.83;;;;;;;;;;5034082;28;20092;-75
2023/06/01 02:43:21;;;;;;;7.97;4.57;;;;;;;;;;5042839;28;20045;-75
2023/06/01 02:45:47;;;;;;;9.60;4.60;;;;;;;;;;5052248;28;20037;-75
2023/06/01 02:48:14;;;;;;;8.88;4.75;;;;;;;;;;5042208;28;20129;-75
2023/06/01 02:50:40;;;;;;;10.45;5.22;;;;;;;;;;5034739;28;20045;-75
2023/06/01 02:53:07;;;;;;;9.18;4.93;;;;;;;;;;5053503;28;20041;-75
2023/06/01 02:55:33;;;;;;;11.48;4.97;;;;;;;;;;5036446;28;20049;-75
2023/06/01 02:57:59;;;;;;;7.70;4.93;;;;;;;;;;5012770;28;20042;-75
2023/06/01 03:00:27;;;;;;;8.25;4.60;;;;;;;;;;5031460;28;20068;-75
2023/06/01 03:02:53;;;;;;;9.93;4.47;;;;;;;;;;5045242;28;20045;-75
2023/06/01 03:05:21;;;;;;;14.00;5.35;;;;;;;;;;5032096;28;20087;-75
2023/06/01 03:07:47;;;;;;;10.32;5.13;;;;;;;;;;5033405;28;20116;-75
2023/06/01 03:10:13;;;;;;;8.70;4.60;;;;;;;;;;5040762;28;20060;-75
2023/06/01 03:12:39;;;;;;;10.07;5.72;;;;;;;;;;5051154;28;20112;-75
2023/06/01 03:15:06;;;;;;;10.40;5.03;;;;;;;;;;5051711;28;20045;-75
2023/06/01 03:17:33;;;;;;;9.68;5.22;;;;;;;;;;5032980;28;20049;-75
2023/06/01 03:19:59;;;;;;;10.50;5.10;;;;;;;;;;5031764;28;20099;-75
2023/06/01 03:22:25;;;;;;;9.73;5.47;;;;;;;;;;5040702;28;20064;-75
2023/06/01 03:24:52;;;;;;;9.70;5.00;;;;;;;;;;5030956;28;20045;-75
2023/06/01 03:27:19;;;;;;;9.60;4.68;;;;;;;;;;5032862;28;20407;-75
2023/06/01 03:29:46;;;;;;;10.50;5.22;;;;;;;;;;5033162;28;20049;-75
2023/06/01 03:32:12;;;;;;;8.45;5.07;;;;;;;;;;5046079;28;20052;-75
2023/06/01 03:34:40;;;;;;;7.90;5.25;;;;;;;;;;5051827;28;20036;-75
2023/06/01 03:37:07;;;;;;;8.85;4.80;;;;;;;;;;5052971;28;20049;-75
2023/06/01 03:39:34;;;;;;;9.82;5.72;;;;;;;;;;5044798;28;20051;-75
2023/06/01 03:42:00;;;;;;;8.30;5.22;;;;;;;;;;5042250;28;20597;-75
2023/06/01 03:44:26;;;;;;;9.27;4.85;;;;;;;;;;5040419;28;20048;-75
2023/06/01 03:46:52;;;;;;;9.25;5.32;;;;;;;;;;5033221;28;20041;-75
2023/06/01 03:49:18;;;;;;;7.47;4.68;;;;;;;;;;5031124;28;20048;-75
2023/06/01 03:51:45;;;;;;;9.73;4.57;;;;;;;;;;5031999;28;20041;-75
2023/06/01 03:54:11;;;;;;;7.50;4.90;;;;;;;;;;5026434;28;20399;-75
2023/06/01 03:56:37;;;;;;;6.82;4.30;;;;;;;;;;5042878;28;20599;-75
2023/06/01 03:59:03;;;;;;;8.30;4.25;;;;;;;;;;5032742;28;20050;-75
2023/06/01 04:01:30;;;;;;;7.15;4.13;;;;;;;;;;5039012;28;20083;-75
2023/06/01 04:03:56;;;;;;;8.90;4.68;;;;;;;;;;5052347;28;20095;-75
2023/06/01 04:06:23;;;;;;;9.02;4.93;;;;;;;;;;5050708;28;20040;-75
2023/06/01 04:08:54;;;;;;;9.13;4.60;;;;;;;;;;5050984;28;20045;-75
2023/06/01 04:11:21;;;;;;;10.75;4.78;;;;;;;;;;5045780;28;20119;-75
2023/06/01 04:13:48;;;;;;;9.30;5.25;;;;;;;;;;5032340;28;20553;-75
2023/06/01 04:16:14;;;;;;;9.80;4.70;;;;;;;;;;5040342;28;20102;-75
2023/06/01 04:18:40;;;;;;;9.88;4.78;;;;;;;;;;5052377;28;20044;-75
2023/06/01 04:21:09;;;;;;;10.02;4.60;;;;;;;;;;5033394;28;20069;-75
2023/06/01 04:23:37;;;;;;;7.38;4.30;;;;;;;;;;5051194;28;20091;-75
2023/06/01 04:26:04;;;;;;;9.40;4.90;;;;;;;;;;5041956;28;20038;-75
2023/06/01 04:28:32;;;;;;;11.70;5.00;;;;;;;;;;5052437;28;20102;-75
2023/06/01 04:30:58;;;;;;;10.13;5.35;;;;;;;;;;5050434;28;20056;-75
2023/06/01 04:33:24;;;;;;;12.52;4.88;;;;;;;;;;5046782;28;20037;-75
2023/06/01 04:35:54;;;;;;;10.15;4.60;;;;;;;;;;5035507;28;20049;-75
2023/06/01 04:38:21;;;;;;;9.85;4.80;;;;;;;;;;5032685;28;20098;-75
2023/06/01 04:40:47;;;;;;;9.63;4.80;;;;;;;;;;5032119;28;20046;-75
2023/06/01 04:43:18;;;;;;;9.85;4.82;;;;;;;;;;5031948;28;20056;-75
2023/06/01 04:45:44;;;;;;;9.88;4.95;;;;;;;;;;5021939;28;20046;-75
2023/06/01 04:48:10;;;;;;;9.65;4.82;;;;;;;;;;5045267;28;20073;-75
2023/06/01 04:50:37;;;;;;;11.15;5.38;;;;;;;;;;5016771;28;20046;-75
2023/06/01 04:53:03;;;;;;;10.07;4.45;;;;;;;;;;5022911;28;20069;-75
2023/06/01 04:55:30;;;;;;;9.20;4.57;;;;;;;;;;5014211;28;20084;-75
2023/06/01 04:57:56;;;;;;;10.10;4.70;;;;;;;;;;5016266;28;20167;-75
2023/06/01 05:00:22;;;;;;;10.35;4.57;;;;;;;;;;5027578;28;20057;-75
2023/06/01 05:02:49;;;;;;;9.85;4.60;;;;;;;;;;5045384;28;20049;-75
2023/06/01 05:05:16;;;;;;;11.93;4.88;;;;;;;;;;5054738;28;20489;-75
2023/06/01 05:07:42;;;;;;;11.65;5.30;;;;;;;;;;5031576;28;20104;-75
2023/06/01 05:10:09;;;;;;;8.52;5.15;;;;;;;;;;5038838;28;20494;-75
2023/06/01 05:12:36;;;;;;;7.18;4.90;;;;;;;;;;5042915;28;20050;-75
2023/06/01 05:15:06;;;;;;;8.70;4.82;;;;;;;;;;5035857;28;20050;-75
2023/06/01 05:17:32;;;;;;;11.40;4.50;;;;;;;;;;5035586;28;20119;-75
2023/06/01 05:19:58;;;;;;;6.78;4.20;;;;;;;;;;5042774;28;20475;-75
2023/06/01 05:22:25;;;;;;;9.38;3.63;;;;;;;;;;5042127;28;20080;-75
2023/06/01 05:24:51;;;;;;;9.85;4.05;;;;;;;;;;5055499;28;20102;-75
2023/06/01 05:27:17;;;;;;;8.75;4.32;;;;;;;;;;5055570;28;20044;-75
2023/06/01 05:29:43;;;;;;;7.07;3.88;;;;;;;;;;5036385;28;20082;-75
2023/06/01 05:32:10;;;;;;;8.93;4.28;;;;;;;;;;5031820;28;20041;-75
2023/06/01 05:34:36;;;;;;;10.52;4.25;;;;;;;;;;5015545;28;20061;-75
2023/06/01 05:37:02;;;;;;;10.88;4.38;;;;;;;;;;5020719;28;20116;-75
2023/06/01 05:39:28;;;;;;;8.77;4.05;;;;;;;;;;5034403;28;20112;-75
2023/06/01 05:41:55;;;;;;;9.35;4.10;;;;;;;;;;5034223;28;20095;-75
2023/06/01 05:44:21;;;;;;;10.38;4.40;;;;;;;;;;5031932;28;20045;-75
2023/06/01 05:46:49;;;;;;;7.72;4.80;;;;;;;;;;5015506;28;20041;-74
2023/06/01 05:49:15;;;;;;;7.13;4.20;;;;;;;;;;5026723;28;20057;-75
2023/06/01 05:51:42;;;;;;;7.40;4.22;;;;;;;;;;5033926;28;20125;-75
2023/06/01 05:54:09;;;;;;;6.97;3.50;;;;;;;;;;5035120;28;20045;-75
2023/06/01 05:56:37;;;;;;;8.93;3.78;;;;;;;;;;5042583;28;20041;-75
2023/06/01 05:59:03;;;;;;;5.88;3.20;;;;;;;;;;5049820;28;20051;-75
2023/06/01 06:01:29;;;;;;;8.40;3.67;;;;;;;;;;5017099;28;20396;-75
2023/06/01 06:03:57;;;;;;;7.35;3.60;;;;;;;;;;5032910;28;20561;-75
2023/06/01 06:06:23;;;;;;;7.95;4.32;;;;;;;;;;5030223;28;20046;-75
2023/06/01 06:08:50;;;;;;;8.70;4.03;;;;;;;;;;5034871;28;20124;-75
2023/06/01 06:11:16;;;;;;;8.85;3.90;;;;;;;;;;5021159;28;20061;-75
2023/06/01 06:13:42;;;;;;;10.25;3.75;;;;;;;;;;5029314;28;20045;-75
2023/06/01 06:16:08;;;;;;;11.35;4.10;;;;;;;;;;5032303;28;20073;-75
2023/06/01 06:18:34;;;;;;;7.18;4.10;;;;;;;;;;5048769;28;20041;-75
2023/06/01 06:21:02;;;;;;;9.63;4.28;;;;;;;;;;5051318;28;20053;-75
2023/06/01 06:23:30;;;;;;;9.70;4.30;;;;;;;;;;5034321;28;20506;-75
2023/06/01 06:25:56;;;;;;;7.78;3.63;;;;;;;;;;5032946;28;20049;-75
2023/06/01 06:28:24;;;;;;;8.73;4.22;;;;;;;;;;5044191;28;20045;-75
2023/06/01 06:30:50;;;;;;;7.57;3.40;;;;;;;;;;5052244;28;20048;-75
2023/06/01 06:33:17;;;;;;;18.38;4.03;;;;;;;;;;5054100;28;20049;-75
2023/06/01 06:35:43;;;;;;;8.05;2.92;;;;;;;;;;5048489;28;20090;-75
2023/06/01 06:38:09;;;;;;;7.05;2.80;;;;;;;;;;5053767;28;20047;-75
2023/06/01 06:40:35;;;;;;;4.70;2.70;;;;;;;;;;5025725;28;20096;-75
2023/06/01 06:43:01;;;;;;;5.05;2.53;;;;;;;;;;5013831;28;20046;-75
2023/06/01 06:45:27;;;;;;;3.78;2.60;;;;;;;;;;5031406;28;20565;-75
2023/06/01 06:47:53;;;;;;;4.63;2.80;;;;;;;;;;5038897;28;20050;-75
2023/06/01 06:50:19;;;;;;;4.63;2.17;;;;;;;;;;5027052;28;20045;-75
2023/06/01 06:52:45;;;;;;;3.45;2.15;;;;;;;;;;5012484;28;20444;-75
2023/06/01 06:55:11;;;;;;;3.25;1.98;;;;;;;;;;5025938;28;20099;-75
2023/06/01 06:57:39;;;;;;;6.43;2.28;;;;;;;;;;5052029;28;20043;-75
2023/06/01 07:00:06;;;;;;;5.78;2.33;;;;;;;;;;5042053;28;20049;-75
2023/06/01 07:02:32;;;;;;;4.05;1.90;;;;;;;;;;5027995;28;20037;-75
2023/06/01 07:04:58;;;;;;;4.82;2.08;;;;;;;;;;5031208;28;20052;-75
2023/06/01 07:07:25;;;;;;;7.97;2.45;;;;;;;;;;5024259;28;20049;-75
2023/06/01 07:09:52;;;;;;;4.18;1.80;;;;;;;;;;5013276;28;20065;-75
2023/06/01 07:12:18;;;;;;;3.60;2.00;;;;;;;;;;5020602;28;20553;-75
2023/06/01 07:14:44;;;;;;;7.05;1.95;;;;;;;;;;5026110;28;20519;-75
2023/06/01 07:17:11;;;;;;;2.97;2.10;;;;;;;;;;5016280;28;20056;-75
2023/06/01 07:19:37;;;;;;;5.32;2.72;;;;;;;;;;5051701;28;20084;-75
2023/06/01 07:22:03;;;;;;;6.22;2.40;;;;;;;;;;5049813;28;20133;-75
2023/06/01 07:24:29;;;;;;;6.25;2.88;;;;;;;;;;5034499;28;20100;-75
2023/06/01 07:26:55;;;;;;;4.97;2.05;;;;;;;;;;5032611;28;20061;-75
2023/06/01 07:29:22;;;;;;;5.63;2.60;;;;;;;;;;5050299;28;20048;-75
2023/06/01 07:31:50;;;;;;;5.38;2.67;;;;;;;;;;5044965;28;20491;-75
2023/06/01 07:34:16;;;;;;;7.43;3.40;;;;;;;;;;5050850;28;20045;-75
2023/06/01 07:36:45;;;;;;;8.73;3.97;;;;;;;;;;5052230;28;20106;-75
2023/06/01 07:39:11;;;;;;;8.00;3.97;;;;;;;;;;5051135;28;20048;-75
2023/06/01 07:41:39;;;;;;;10.18;3.80;;;;;;;;;;5036522;28;20055;-75
2023/06/01 07:44:06;;;;;;;12.10;4.18;;;;;;;;;;5031797;28;20053;-75
2023/06/01 07:46:32;;;;;;;10.18;4.32;;;;;;;;;;5026705;28;20053;-75
2023/06/01 07:48:58;;;;;;;11.85;4.47;;;;;;;;;;5025777;28;20068;-75
2023/06/01 07:51:24;;;;;;;12.00;4.60;;;;;;;;;;5013056;28;20061;-76
2023/06/01 07:53:50;;;;;;;11.38;4.30;;;;;;;;;;5034589;28;20136;-76
2023/06/01 07:56:16;;;;;;;11.75;5.03;;;;;;;;;;5040222;28;20071;-75
2023/06/01 07:58:44;;;;;;;10.30;3.63;;;;;;;;;;5045358;28;20041;-75
2023/06/01 08:01:10;;;;;;;8.77;3.63;;;;;;;;;;5032690;28;20042;-75
2023/06/01 08:03:36;;;;;;;8.38;3.95;;;;;;;;;;5011668;28;20038;-75
2023/06/01 08:06:04;;;;;;;9.80;4.07;;;;;;;;;;5013070;28;20125;-75
2023/06/01 08:08:31;;;;;;;10.13;4.45;;;;;;;;;;5033516;28;20516;-75
2023/06/01 08:10:57;;;;;;;11.48;3.97;;;;;;;;;;5052516;28;20064;-75
2023/06/01 08:13:25;;;;;;;9.35;3.78;;;;;;;;;;5051450;28;20051;-75
2023/06/01 08:15:52;;;;;;;10.57;3.80;;;;;;;;;;5035331;28;20049;-75
2023/06/01 08:18:19;;;;;;;10.57;4.10;;;;;;;;;;5030867;28;20072;-75
2023/06/01 08:20:45;;;;;;;10.90;3.83;;;;;;;;;;5016428;28;20552;-75
2023/06/01 08:23:12;;;;;;;11.32;4.40;;;;;;;;;;5012932;28;20464;-75
2023/06/01 08:25:38;;;;;;;9.00;3.85;;;;;;;;;;5024999;28;21455;-75
2023/06/01 08:28:04;;;;;;;9.23;3.47;;;;;;;;;;5034173;28;20116;-75
2023/06/01 08:30:31;;;;;;;10.68;4.00;;;;;;;;;;5021789;28;20048;-75
2023/06/01 08:32:57;;;;;;;8.60;4.00;;;;;;;;;;5036232;28;20046;-75
2023/06/01 08:35:23;;;;;;;11.43;3.70;;;;;;;;;;5031997;28;20491;-75
2023/06/01 08:37:50;;;;;;;11.80;4.22;;;;;;;;;;5033771;28;20050;-75
2023/06/01 08:40:16;;;;;;;8.52;3.22;;;;;;;;;;5037219;28;20087;-75
2023/06/01 08:42:44;;;;;;;9.68;3.80;;;;;;;;;;5036193;28;20053;-75
2023/06/01 08:45:11;;;;;;;9.18;3.35;;;;;;;;;;5035438;28;20129;-75
2023/06/01 08:47:38;;;;;;;8.43;3.72;;;;;;;;;;5035060;28;20054;-75
2023/06/01 08:50:04;;;;;;;9.63;3.97;;;;;;;;;;5040228;28;20045;-75
2023/06/01 08:52:31;;;;;;;7.10;3.55;;;;;;;;;;5034194;28;20045;-75
2023/06/01 08:55:01;;;;;;;10.80;3.97;;;;;;;;;;5046147;28;20049;-75
2023/06/01 08:57:31;;;;;;;9.95;3.70;;;;;;;;;;5036222;28;20042;-75
2023/06/01 08:59:58;;;;;;;7.55;3.22;;;;;;;;;;5021501;28;20088;-75
2023/06/01 09:02:24;;;;;;;10.02;3.40;;;;;;;;;;5036268;28;20048;-75
2023/06/01 09:04:51;;;;;;;9.95;3.55;;;;;;;;;;5035851;28;20053;-75
2023/06/01 09:07:17;;;;;;;8.27;3.30;;;;;;;;;;5045518;28;20052;-75
2023/06/01 09:09:43;;;;;;;8.93;3.45;;;;;;;;;;5036532;28;20049;-75
2023/06/01 09:12:16;;;;;;;8.63;3.28;;;;;;;;;;5046009;28;20041;-75
2023/06/01 09:14:42;;;;;;;11.55;3.55;;;;;;;;;;5047032;28;20045;-75
2023/06/01 09:17:12;;;;;;;9.60;3.50;;;;;;;;;;5035114;28;20140;-75
2023/06/01 09:19:44;;;;;;;7.75;3.42;;;;;;;;;;5024139;28;20050;-75
2023/06/01 09:22:12;;;;;;;9.52;3.53;;;;;;;;;;5029733;28;20053;-75
2023/06/01 09:24:38;;;;;;;9.30;3.58;;;;;;;;;;5017847;28;20053;-76
2023/06/01 09:27:04;;;;;;;9.23;3.67;;;;;;;;;;5016132;28;20057;-76
2023/06/01 09:29:31;;;;;;;8.23;3.70;;;;;;;;;;5035521;28;20045;-76
2023/06/01 09:31:57;;;;;;;8.98;3.88;;;;;;;;;;5036300;28;20092;-76
2023/06/01 09:34:23;;;;;;;6.90;3.42;;;;;;;;;;5031354;28;20104;-77
2023/06/01 09:36:51;;;;;;;9.65;3.38;;;;;;;;;;5035028;28;20110;-77
2023/06/01 09:39:18;;;;;;;11.90;3.83;;;;;;;;;;5034724;28;20044;-78
2023/06/01 09:41:45;;;;;;;8.57;3.75;;;;;;;;;;5020505;28;20407;-78
2023/06/01 09:44:12;;;;;;;11.88;4.20;;;;;;;;;;5032658;28;20061;-77
2023/06/01 09:46:50;;;;;;;7.10;3.25;;;;;;;;;;5033938;28;20057;-78
2023/06/01 09:49:27;;;;;;;8.38;3.72;;;;;;;;;;5028788;28;20057;-78
2023/06/01 09:52:14;;;;;;;7.82;4.10;;;;;;;;;;5030335;28;20043;-77
2023/06/01 09:54:45;;;;;;;8.07;3.30;;;;;;;;;;5034178;28;20037;-77
2023/06/01 09:57:11;;;;;;;10.13;3.95;;;;;;;;;;5034314;28;20045;-78
2023/06/01 09:59:41;;;;;;;8.15;3.63;;;;;;;;;;5035689;28;20046;-77
2023/06/01 10:02:08;;;;;;;9.00;3.83;;;;;;;;;;5034125;28;20496;-76
2023/06/01 10:04:37;;;;;;;6.68;3.47;;;;;;;;;;5033402;28;20128;-77
2023/06/01 10:07:03;;;;;;;8.13;3.50;;;;;;;;;;5034855;28;20076;-76
2023/06/01 10:09:30;;;;;;;7.97;4.18;;;;;;;;;;5035888;28;20045;-77
2023/06/01 10:11:56;;;;;;;8.88;3.80;;;;;;;;;;5035624;28;20073;-76
2023/06/01 10:14:23;;;;;;;8.95;4.38;;;;;;;;;;5035535;28;20522;-76
2023/06/01 10:16:53;;;;;;;7.05;3.17;;;;;;;;;;5033425;28;20530;-76
2023/06/01 10:19:21;;;;;;;8.93;3.72;;;;;;;;;;5023828;28;20069;-76
2023/06/01 10:21:47;;;;;;;7.45;3.53;;;;;;;;;;5031376;28;20408;-77
2023/06/01 10:24:14;;;;;;;8.98;3.63;;;;;;;;;;5019976;28;20076;-77
2023/06/01 10:26:58;;;;;;;6.68;3.00;;;;;;;;;;5016419;28;20107;-77
2023/06/01 10:29:24;;;;;;;5.50;3.53;;;;;;;;;;5034344;28;20502;-77
2023/06/01 10:31:51;;;;;;;11.57;3.63;;;;;;;;;;5034368;28;20052;-77
2023/06/01 10:34:36;;;;;;;6.80;3.17;;;;;;;;;;5050146;28;20056;-78
2023/06/01 10:37:02;;;;;;;8.18;3.38;;;;;;;;;;5036534;28;20045;-77
2023/06/01 10:39:29;;;;;;;7.72;3.58;;;;;;;;;;5054657;28;20060;-76
2023/06/01 10:41:56;;;;;;;11.85;4.10;;;;;;;;;;5054142;28;20086;-77
2023/06/01 10:44:40;;;;;;;6.60;3.42;;;;;;;;;;5034170;28;20474;-76
2023/06/01 10:47:07;;;;;;;6.65;3.42;;;;;;;;;;5034500;28;20056;-77
2023/06/01 10:49:51;;;;;;;7.97;3.35;;;;;;;;;;5017533;28;20042;-76
2023/06/01 10:52:32;;;;;;;5.53;3.10;;;;;;;;;;5031518;28;20049;-77
2023/06/01 10:55:07;;;;;;;6.50;3.17;;;;;;;;;;5034102;28;20484;-77
2023/06/01 10:57:34;;;;;;;7.10;3.20;;;;;;;;;;5042222;28;20120;-77
2023/06/01 11:00:14;;;;;;;6.97;3.50;;;;;;;;;;5054076;28;20148;-77
2023/06/01 11:02:44;;;;;;;7.45;3.30;;;;;;;;;;5048106;28;20051;-77
2023/06/01 11:05:29;;;;;;;7.38;3.60;;;;;;;;;;5034744;28;20503;-76
2023/06/01 11:07:55;;;;;;;6.38;3.17;;;;;;;;;;5034222;28;20490;-77
2023/06/01 11:10:40;;;;;;;9.98;3.80;;;;;;;;;;5032442;28;20057;-77
2023/06/01 11:13:17;;;;;;;10.40;4.20;;;;;;;;;;5026341;28;20107;-78
2023/06/01 11:16:04;;;;;;;6.32;3.33;;;;;;;;;;5032099;28;20081;-76
2023/06/01 11:18:52;;;;;;;8.85;4.07;;;;;;;;;;5029523;28;20053;-77
2023/06/01 11:21:23;;;;;;;9.10;3.70;;;;;;;;;;5033603;28;20372;-76
2023/06/01 11:23:49;;;;;;;9.43;4.38;;;;;;;;;;5014362;28;20092;-76
2023/06/01 11:26:16;;;;;;;11.00;5.05;;;;;;;;;;5013576;28;20062;-76
2023/06/01 11:28:42;;;;;;;11.77;4.40;;;;;;;;;;5013960;28;20070;-76
2023/06/01 11:31:10;;;;;;;8.75;4.75;;;;;;;;;;5014122;28;20073;-76
2023/06/01 11:33:38;;;;;;;11.30;4.38;;;;;;;;;;5013175;28;20046;-76
2023/06/01 11:36:05;;;;;;;7.72;4.47;;;;;;;;;;5019459;28;20452;-76
2023/06/01 11:38:35;;;;;;;11.32;4.18;;;;;;;;;;5034086;28;20050;-76
2023/06/01 11:41:02;;;;;;;5.72;3.83;;;;;;;;;;5026431;28;20050;-76
2023/06/01 11:43:29;;;;;;;9.68;3.65;;;;;;;;;;5014680;28;20037;-76
2023/06/01 11:46:00;;;;;;;7.65;3.63;;;;;;;;;;5016847;28;20403;-76
2023/06/01 11:48:26;;;;;;;8.07;3.20;;;;;;;;;;5033416;28;20042;-76
2023/06/01 11:50:52;;;;;;;6.60;3.60;;;;;;;;;;5033314;28;20049;-76
2023/06/01 11:53:19;;;;;;;13.40;4.07;;;;;;;;;;5027892;28;20041;-76
2023/06/01 11:55:49;;;;;;;7.63;4.10;;;;;;;;;;5020526;28;20060;-76
2023/06/01 11:58:20;;;;;;;8.88;4.75;;;;;;;;;;5033367;28;20045;-76
2023/06/01 12:00:46;;;;;;;9.15;4.13;;;;;;;;;;5031659;28;20081;-76
2023/06/01 12:03:12;;;;;;;10.40;4.03;;;;;;;;;;5027154;28;20412;-76
2023/06/01 12:05:51;;;;;;;10.02;4.30;;;;;;;;;;5014218;28;20387;-77
2023/06/01 12:08:23;;;;;;;9.50;4.78;;;;;;;;;;5018048;28;20061;-76
2023/06/01 12:10:50;;;;;;;8.13;4.57;;;;;;;;;;4998858;28;20084;-76
2023/06/01 12:13:20;;;;;;;9.68;4.35;;;;;;;;;;5029825;28;20515;-76
2023/06/01 12:15:46;;;;;;;8.82;4.28;;;;;;;;;;5036836;28;20431;-76
2023/06/01 12:18:13;;;;;;;22.33;4.45;;;;;;;;;;5037194;28;20045;-76
2023/06/01 12:20:41;;;;;;;9.98;4.80;;;;;;;;;;5029686;28;20030;-76
2023/06/01 12:23:19;;;;;;;10.38;4.60;;;;;;;;;;5024267;28;20103;-76
2023/06/01 12:25:50;;;;;;;11.75;5.55;;;;;;;;;;5036478;28;20049;-77
2023/06/01 12:28:19;;;;;;;15.07;6.18;;;;;;;;;;5023639;28;20046;-76
2023/06/01 12:30:46;;;;;;;10.27;4.82;;;;;;;;;;5034662;28;20041;-76
2023/06/01 12:33:31;;;;;;;9.88;4.50;;;;;;;;;;5023121;28;20050;-76
2023/06/01 12:35:57;;;;;;;11.30;4.72;;;;;;;;;;5019650;28;20468;-76
2023/06/01 12:38:23;;;;;;;9.90;4.97;;;;;;;;;;5034528;28;20768;-76
2023/06/01 12:41:07;;;;;;;10.75;4.47;;;;;;;;;;5033636;28;20047;-76
2023/06/01 12:43:33;;;;;;;11.05;4.57;;;;;;;;;;5036511;28;20053;-76
2023/06/01 12:46:01;;;;;;;10.55;4.65;;;;;;;;;;5035287;28;20049;-76
2023/06/01 12:48:33;;;;;;;7.38;4.00;;;;;;;;;;5033760;28;20050;-76
2023/06/01 12:50:59;;;;;;;9.70;3.90;;;;;;;;;;5016206;28;20162;-76
2023/06/01 12:53:25;;;;;;;10.65;3.97;;;;;;;;;;5025982;28;20139;-76
2023/06/01 12:55:51;;;;;;;9.45;3.70;;;;;;;;;;5015853;28;20408;-76
2023/06/01 12:58:17;;;;;;;11.23;4.43;;;;;;;;;;5032086;28;20057;-76
2023/06/01 13:00:43;;;;;;;7.90;3.97;;;;;;;;;;5037456;28;20041;-76
2023/06/01 13:03:09;;;;;;;7.63;3.97;;;;;;;;;;5037372;28;20041;-76
2023/06/01 13:05:35;;;;;;;6.53;3.60;;;;;;;;;;5037115;28;20042;-76
2023/06/01 13:08:02;;;;;;;8.00;3.70;;;;;;;;;;5025947;28;20095;-76
2023/06/01 13:10:28;;;;;;;7.72;3.60;;;;;;;;;;5036507;28;20564;-76
2023/06/01 13:12:55;;;;;;;7.30;3.70;;;;;;;;;;5027918;28;20041;-76
2023/06/01 13:15:21;;;;;;;9.85;3.50;;;;;;;;;;5035131;28;20046;-76
2023/06/01 13:17:47;;;;;;;6.90;3.47;;;;;;;;;;5032019;28;20045;-76
2023/06/01 13:20:16;;;;;;;10.70;4.30;;;;;;;;;;5036092;28;20049;-78
2023/06/01 13:22:42;;;;;;;6.28;3.28;;;;;;;;;;5036323;28;20045;-76
2023/06/01 13:25:09;;;;;;;7.80;3.40;;;;;;;;;;5040363;28;20048;-76
2023/06/01 13:27:35;;;;;;;6.00;3.15;;;;;;;;;;5037968;28;20042;-77
2023/06/01 13:30:01;;;;;;;4.05;3.08;;;;;;;;;;5035919;28;20038;-76
2023/06/01 13:32:28;;;;;;;6.70;3.28;;;;;;;;;;5036087;28;20041;-77
2023/06/01 13:34:55;;;;;;;5.65;3.38;;;;;;;;;;5034758;28;20399;-76
2023/06/01 13:37:21;;;;;;;5.78;3.10;;;;;;;;;;5036393;28;20049;-76
2023/06/01 13:39:47;;;;;;;8.10;3.10;;;;;;;;;;5035513;28;20128;-76
2023/06/01 13:42:14;;;;;;;6.82;3.10;;;;;;;;;;5035635;28;20507;-77
2023/06/01 13:44:45;;;;;;;4.35;2.75;;;;;;;;;;5028286;28;20049;-76
2023/06/01 13:47:11;;;;;;;8.88;3.30;;;;;;;;;;5037626;28;20069;-76
2023/06/01 13:49:37;;;;;;;5.47;3.17;;;;;;;;;;5048872;28;20124;-77
2023/06/01 13:52:03;;;;;;;9.18;3.22;;;;;;;;;;5017859;28;20077;-76
2023/06/01 13:54:29;;;;;;;6.80;3.80;;;;;;;;;;5035358;28;20506;-77
2023/06/01 13:56:55;;;;;;;6.63;3.47;;;;;;;;;;5033436;28;20121;-76
2023/06/01 13:59:21;;;;;;;7.75;3.78;;;;;;;;;;5035335;28;20049;-76
2023/06/01 14:01:47;;;;;;;9.10;4.38;;;;;;;;;;5035461;28;20049;-76
2023/06/01 14:04:13;;;;;;;7.53;3.85;;;;;;;;;;5047103;28;20052;-76
2023/06/01 14:06:39;;;;;;;7.43;4.22;;;;;;;;;;5055223;28;20041;-76
2023/06/01 14:09:05;;;;;;;8.48;4.10;;;;;;;;;;5018797;28;20045;-76
2023/06/01 14:11:31;;;;;;;8.05;4.15;;;;;;;;;;5014957;28;20392;-76
2023/06/01 14:13:57;;;;;;;6.38;3.50;;;;;;;;;;5034638;28;20046;-76
2023/06/01 14:16:23;;;;;;;5.50;3.28;;;;;;;;;;5033931;28;20050;-76
2023/06/01 14:18:49;;;;;;;6.82;2.97;;;;;;;;;;5034425;28;20046;-76
2023/06/01 14:21:15;;;;;;;7.68;3.50;;;;;;;;;;5013352;28;20037;-76
2023/06/01 14:23:44;;;;;;;6.28;3.20;;;;;;;;;;5019190;28;20476;-76
2023/06/01 14:26:10;;;;;;;6.18;3.25;;;;;;;;;;5034610;28;20052;-76
2023/06/01 14:28:36;;;;;;;7.32;2.88;;;;;;;;;;5033440;28;20081;-76
2023/06/01 14:31:02;;;;;;;5.38;2.60;;;;;;;;;;5026188;28;20114;-76
2023/06/01 14:33:28;;;;;;;6.88;3.70;;;;;;;;;;5046986;28;20041;-76
2023/06/01 14:35:54;;;;;;;6.93;3.50;;;;;;;;;;5020606;28;20038;-76
2023/06/01 14:38:20;;;;;;;4.72;3.33;;;;;;;;;;5023541;28;20041;-76
2023/06/01 14:40:46;;;;;;;6.88;3.50;;;;;;;;;;5045658;28;20357;-76